sensor_id;sensor_type;location;lat;lon;timestamp;pressure;altitude;pressure_sealevel;temperature;humidity
74960;BME280;63518;49.572;1.106;2023-04-15T00:01:01;98514.19;;;8.28;82.14
74960;BME280;63518;49.572;1.106;2023-04-15T00:03:37;98515.16;;;8.18;81.71
74960;BME280;63518;49.572;1.106;2023-04-15T00:06:04;98516.47;;;8.40;82.17
74960;BME280;63518;49.572;1.106;2023-04-15T00:08:32;98518.63;;;8.05;83.14
74960;BME280;63518;49.572;1.106;2023-04-15T00:10:59;98537.66;;;7.78;84.11
74960;BME280;63518;49.572;1.106;2023-04-15T00:13:29;98538.34;;;7.16;86.58
74960;BME280;63518;49.572;1.106;2023-04-15T00:16:05;98551.38;;;6.72;90.11
74960;BME280;63518;49.572;1.106;2023-04-15T00:18:34;98551.28;;;7.11;90.12
74960;BME280;63518;49.572;1.106;2023-04-15T00:21:01;98547.09;;;6.55;91.09
74960;BME280;63518;49.572;1.106;2023-04-15T00:23:38;98535.88;;;6.91;89.68
74960;BME280;63518;49.572;1.106;2023-04-15T00:26:05;98534.16;;;7.24;89.42
74960;BME280;63518;49.572;1.106;2023-04-15T00:28:33;98539.81;;;7.81;86.07
74960;BME280;63518;49.572;1.106;2023-04-15T00:31:01;98531.13;;;7.50;86.32
74960;BME280;63518;49.572;1.106;2023-04-15T00:33:28;98529.09;;;7.60;87.14
74960;BME280;63518;49.572;1.106;2023-04-15T00:35:55;98535.88;;;7.44;86.88
74960;BME280;63518;49.572;1.106;2023-04-15T00:38:22;98545.56;;;7.60;85.86
74960;BME280;63518;49.572;1.106;2023-04-15T00:40:49;98542.03;;;7.07;86.88
74960;BME280;63518;49.572;1.106;2023-04-15T00:43:17;98551.03;;;7.12;88.40
74960;BME280;63518;49.572;1.106;2023-04-15T00:45:46;98546.88;;;7.15;88.97
74960;BME280;63518;49.572;1.106;2023-04-15T00:48:14;98532.44;;;6.75;88.90
74960;BME280;63518;49.572;1.106;2023-04-15T00:50:42;98535.50;;;6.69;89.57
74960;BME280;63518;49.572;1.106;2023-04-15T00:53:09;98534.84;;;7.11;89.92
74960;BME280;63518;49.572;1.106;2023-04-15T00:55:37;98537.97;;;7.28;88.68
74960;BME280;63518;49.572;1.106;2023-04-15T00:58:03;98537.47;;;6.97;89.06
74960;BME280;63518;49.572;1.106;2023-04-15T01:00:30;98526.34;;;6.49;89.31
74960;BME280;63518;49.572;1.106;2023-04-15T01:02:58;98530.47;;;6.81;88.88
74960;BME280;63518;49.572;1.106;2023-04-15T01:05:25;98538.72;;;6.76;88.88
74960;BME280;63518;49.572;1.106;2023-04-15T01:07:52;98514.16;;;7.00;89.11
74960;BME280;63518;49.572;1.106;2023-04-15T01:10:20;98518.44;;;6.77;88.51
74960;BME280;63518;49.572;1.106;2023-04-15T01:12:47;98523.31;;;6.85;89.31
74960;BME280;63518;49.572;1.106;2023-04-15T01:15:14;98522.09;;;6.67;89.66
74960;BME280;63518;49.572;1.106;2023-04-15T01:17:41;98515.88;;;6.91;89.04
74960;BME280;63518;49.572;1.106;2023-04-15T01:20:09;98507.53;;;6.43;89.06
74960;BME280;63518;49.572;1.106;2023-04-15T01:22:36;98523.81;;;6.58;89.64
74960;BME280;63518;49.572;1.106;2023-04-15T01:25:08;98496.97;;;6.60;89.30
74960;BME280;63518;49.572;1.106;2023-04-15T01:27:38;98513.72;;;6.53;89.67
74960;BME280;63518;49.572;1.106;2023-04-15T01:30:07;98519.31;;;6.72;89.71
74960;BME280;63518;49.572;1.106;2023-04-15T01:32:34;98525.75;;;6.57;90.53
74960;BME280;63518;49.572;1.106;2023-04-15T01:35:01;98533.53;;;6.74;89.66
74960;BME280;63518;49.572;1.106;2023-04-15T01:37:28;98512.78;;;6.68;89.21
74960;BME280;63518;49.572;1.106;2023-04-15T01:39:55;98528.81;;;6.51;90.33
74960;BME280;63518;49.572;1.106;2023-04-15T01:42:23;98524.06;;;6.61;90.14
74960;BME280;63518;49.572;1.106;2023-04-15T01:44:50;98540.69;;;6.70;89.34
74960;BME280;63518;49.572;1.106;2023-04-15T01:47:17;98537.69;;;6.72;90.11
74960;BME280;63518;49.572;1.106;2023-04-15T01:49:44;98533.91;;;6.23;90.80
74960;BME280;63518;49.572;1.106;2023-04-15T01:52:11;98542.91;;;6.29;91.71
74960;BME280;63518;49.572;1.106;2023-04-15T01:54:37;98542.19;;;6.13;92.15
74960;BME280;63518;49.572;1.106;2023-04-15T01:57:04;98539.47;;;6.13;93.45
74960;BME280;63518;49.572;1.106;2023-04-15T01:59:31;98546.78;;;6.23;93.29
74960;BME280;63518;49.572;1.106;2023-04-15T02:01:58;98534.47;;;6.25;93.40
74960;BME280;63518;49.572;1.106;2023-04-15T02:04:26;98546.25;;;6.60;92.98
74960;BME280;63518;49.572;1.106;2023-04-15T02:06:53;98545.75;;;6.53;92.19
74960;BME280;63518;49.572;1.106;2023-04-15T02:09:20;98566.59;;;6.49;92.53
74960;BME280;63518;49.572;1.106;2023-04-15T02:11:47;98562.09;;;6.63;92.16
74960;BME280;63518;49.572;1.106;2023-04-15T02:14:14;98562.47;;;6.51;92.44
74960;BME280;63518;49.572;1.106;2023-04-15T02:16:41;98557.03;;;6.46;92.05
74960;BME280;63518;49.572;1.106;2023-04-15T02:19:08;98567.50;;;6.73;92.21
74960;BME280;63518;49.572;1.106;2023-04-15T02:21:36;98578.03;;;6.56;91.40
74960;BME280;63518;49.572;1.106;2023-04-15T02:24:03;98574.72;;;6.59;91.50
74960;BME280;63518;49.572;1.106;2023-04-15T02:26:30;98578.75;;;6.72;92.02
74960;BME280;63518;49.572;1.106;2023-04-15T02:29:00;98578.59;;;6.53;92.26
74960;BME280;63518;49.572;1.106;2023-04-15T02:31:27;98578.69;;;6.43;92.32
74960;BME280;63518;49.572;1.106;2023-04-15T02:33:54;98613.91;;;6.54;92.19
74960;BME280;63518;49.572;1.106;2023-04-15T02:36:20;98602.31;;;6.23;92.44
74960;BME280;63518;49.572;1.106;2023-04-15T02:38:47;98608.25;;;5.81;92.99
74960;BME280;63518;49.572;1.106;2023-04-15T02:41:14;98614.50;;;5.97;93.40
74960;BME280;63518;49.572;1.106;2023-04-15T02:43:41;98628.31;;;6.26;93.50
74960;BME280;63518;49.572;1.106;2023-04-15T02:46:07;98636.88;;;6.04;93.66
74960;BME280;63518;49.572;1.106;2023-04-15T02:48:38;98633.06;;;6.00;93.70
74960;BME280;63518;49.572;1.106;2023-04-15T02:51:16;98639.03;;;6.12;93.85
74960;BME280;63518;49.572;1.106;2023-04-15T02:53:46;98651.66;;;6.03;93.41
74960;BME280;63518;49.572;1.106;2023-04-15T02:56:13;98660.84;;;6.27;93.30
74960;BME280;63518;49.572;1.106;2023-04-15T02:58:42;98656.22;;;6.23;93.35
74960;BME280;63518;49.572;1.106;2023-04-15T03:01:10;98674.03;;;6.15;92.72
74960;BME280;63518;49.572;1.106;2023-04-15T03:03:37;98670.78;;;6.08;93.20
74960;BME280;63518;49.572;1.106;2023-04-15T03:06:04;98675.19;;;6.09;92.89
74960;BME280;63518;49.572;1.106;2023-04-15T03:08:31;98688.28;;;6.07;93.26
74960;BME280;63518;49.572;1.106;2023-04-15T03:10:58;98689.41;;;6.06;92.67
74960;BME280;63518;49.572;1.106;2023-04-15T03:13:26;98691.94;;;5.87;93.05
74960;BME280;63518;49.572;1.106;2023-04-15T03:15:53;98704.69;;;6.12;93.00
74960;BME280;63518;49.572;1.106;2023-04-15T03:18:20;98707.47;;;6.02;93.02
74960;BME280;63518;49.572;1.106;2023-04-15T03:20:47;98717.28;;;6.13;93.36
74960;BME280;63518;49.572;1.106;2023-04-15T03:23:13;98709.97;;;5.88;92.97
74960;BME280;63518;49.572;1.106;2023-04-15T03:25:40;98726.34;;;6.03;93.38
74960;BME280;63518;49.572;1.106;2023-04-15T03:28:07;98716.47;;;6.13;93.71
74960;BME280;63518;49.572;1.106;2023-04-15T03:30:34;98701.47;;;5.95;93.77
74960;BME280;63518;49.572;1.106;2023-04-15T03:33:01;98713.25;;;5.80;94.21
74960;BME280;63518;49.572;1.106;2023-04-15T03:35:27;98720.06;;;5.98;94.10
74960;BME280;63518;49.572;1.106;2023-04-15T03:37:54;98745.19;;;6.10;94.04
74960;BME280;63518;49.572;1.106;2023-04-15T03:40:21;98725.53;;;5.98;93.92
74960;BME280;63518;49.572;1.106;2023-04-15T03:42:48;98735.34;;;6.09;93.98
74960;BME280;63518;49.572;1.106;2023-04-15T03:45:15;98751.72;;;6.24;93.83
74960;BME280;63518;49.572;1.106;2023-04-15T03:47:42;98747.31;;;6.28;93.70
74960;BME280;63518;49.572;1.106;2023-04-15T03:50:09;98748.47;;;6.12;93.45
74960;BME280;63518;49.572;1.106;2023-04-15T03:52:35;98756.91;;;6.26;93.25
74960;BME280;63518;49.572;1.106;2023-04-15T03:55:02;98771.41;;;6.21;93.37
74960;BME280;63518;49.572;1.106;2023-04-15T03:57:29;98768.16;;;6.14;92.81
74960;BME280;63518;49.572;1.106;2023-04-15T03:59:56;98771.44;;;6.16;93.66
74960;BME280;63518;49.572;1.106;2023-04-15T04:02:23;98788.88;;;6.41;92.82
74960;BME280;63518;49.572;1.106;2023-04-15T04:04:50;98781.22;;;6.43;92.81
74960;BME280;63518;49.572;1.106;2023-04-15T04:07:17;98796.56;;;6.28;92.87
74960;BME280;63518;49.572;1.106;2023-04-15T04:09:44;98792.50;;;6.16;92.42
74960;BME280;63518;49.572;1.106;2023-04-15T04:12:13;98796.63;;;6.03;92.83
74960;BME280;63518;49.572;1.106;2023-04-15T04:14:39;98786.22;;;6.05;93.40
74960;BME280;63518;49.572;1.106;2023-04-15T04:17:06;98808.97;;;5.95;93.42
74960;BME280;63518;49.572;1.106;2023-04-15T04:19:34;98808.13;;;6.05;93.62
74960;BME280;63518;49.572;1.106;2023-04-15T04:22:01;98796.38;;;5.84;93.67
74960;BME280;63518;49.572;1.106;2023-04-15T04:24:28;98809.50;;;5.82;94.43
74960;BME280;63518;49.572;1.106;2023-04-15T04:26:54;98823.72;;;5.89;93.81
74960;BME280;63518;49.572;1.106;2023-04-15T04:29:23;98826.47;;;5.79;93.36
74960;BME280;63518;49.572;1.106;2023-04-15T04:31:49;98824.28;;;5.86;93.47
74960;BME280;63518;49.572;1.106;2023-04-15T04:34:16;98827.00;;;5.66;93.33
74960;BME280;63518;49.572;1.106;2023-04-15T04:36:43;98816.34;;;5.59;94.59
74960;BME280;63518;49.572;1.106;2023-04-15T04:39:10;98853.53;;;5.70;94.04
74960;BME280;63518;49.572;1.106;2023-04-15T04:41:36;98840.97;;;5.85;94.08
74960;BME280;63518;49.572;1.106;2023-04-15T04:44:03;98861.19;;;5.63;93.56
74960;BME280;63518;49.572;1.106;2023-04-15T04:46:30;98847.50;;;5.58;94.08
74960;BME280;63518;49.572;1.106;2023-04-15T04:48:57;98872.41;;;5.62;93.97
74960;BME280;63518;49.572;1.106;2023-04-15T04:51:23;98889.03;;;5.60;93.16
74960;BME280;63518;49.572;1.106;2023-04-15T04:53:50;98890.16;;;5.64;93.20
74960;BME280;63518;49.572;1.106;2023-04-15T04:56:17;98903.31;;;5.88;93.99
74960;BME280;63518;49.572;1.106;2023-04-15T04:58:44;98912.00;;;5.49;93.47
74960;BME280;63518;49.572;1.106;2023-04-15T05:01:11;98916.41;;;5.65;93.29
74960;BME280;63518;49.572;1.106;2023-04-15T05:03:38;98930.59;;;5.67;92.73
74960;BME280;63518;49.572;1.106;2023-04-15T05:06:05;98927.84;;;5.52;92.12
74960;BME280;63518;49.572;1.106;2023-04-15T05:08:34;98951.66;;;5.62;92.23
74960;BME280;63518;49.572;1.106;2023-04-15T05:11:03;98949.44;;;5.59;92.46
74960;BME280;63518;49.572;1.106;2023-04-15T05:13:30;98949.75;;;5.62;91.44
74960;BME280;63518;49.572;1.106;2023-04-15T05:15:57;98972.16;;;5.64;92.36
74960;BME280;63518;49.572;1.106;2023-04-15T05:18:24;98956.28;;;5.46;91.25
74960;BME280;63518;49.572;1.106;2023-04-15T05:20:50;98983.06;;;5.59;91.78
74960;BME280;63518;49.572;1.106;2023-04-15T05:23:18;98968.59;;;5.59;92.32
74960;BME280;63518;49.572;1.106;2023-04-15T05:25:44;98977.84;;;5.53;91.89
74960;BME280;63518;49.572;1.106;2023-04-15T05:28:11;98972.97;;;5.55;92.26
74960;BME280;63518;49.572;1.106;2023-04-15T05:30:38;98983.34;;;5.58;92.25
74960;BME280;63518;49.572;1.106;2023-04-15T05:33:05;99000.28;;;5.60;92.19
74960;BME280;63518;49.572;1.106;2023-04-15T05:35:32;99007.06;;;5.42;92.23
74960;BME280;63518;49.572;1.106;2023-04-15T05:37:59;99011.00;;;5.71;92.43
74960;BME280;63518;49.572;1.106;2023-04-15T05:40:26;99015.31;;;5.57;91.90
74960;BME280;63518;49.572;1.106;2023-04-15T05:42:53;99024.44;;;5.88;92.98
74960;BME280;63518;49.572;1.106;2023-04-15T05:45:20;99009.31;;;5.60;92.29
74960;BME280;63518;49.572;1.106;2023-04-15T05:47:47;99029.91;;;5.83;92.41
74960;BME280;63518;49.572;1.106;2023-04-15T05:50:16;99030.13;;;5.66;91.93
74960;BME280;63518;49.572;1.106;2023-04-15T05:52:42;99035.53;;;5.51;91.51
74960;BME280;63518;49.572;1.106;2023-04-15T05:55:09;99025.16;;;5.53;91.34
74960;BME280;63518;49.572;1.106;2023-04-15T05:57:36;99054.75;;;5.76;92.16
74960;BME280;63518;49.572;1.106;2023-04-15T06:00:04;99061.56;;;5.64;92.06
74960;BME280;63518;49.572;1.106;2023-04-15T06:02:31;99070.53;;;5.54;91.53
74960;BME280;63518;49.572;1.106;2023-04-15T06:04:58;99068.16;;;5.73;90.98
74960;BME280;63518;49.572;1.106;2023-04-15T06:07:25;99083.13;;;5.60;91.25
74960;BME280;63518;49.572;1.106;2023-04-15T06:09:52;99088.16;;;5.78;90.42
74960;BME280;63518;49.572;1.106;2023-04-15T06:12:19;99082.47;;;5.95;90.94
74960;BME280;63518;49.572;1.106;2023-04-15T06:14:46;99090.13;;;5.93;91.16
74960;BME280;63518;49.572;1.106;2023-04-15T06:17:12;99097.47;;;5.88;91.55
74960;BME280;63518;49.572;1.106;2023-04-15T06:19:40;99099.28;;;5.67;91.88
74960;BME280;63518;49.572;1.106;2023-04-15T06:22:08;99106.94;;;5.65;91.19
74960;BME280;63518;49.572;1.106;2023-04-15T06:24:35;99115.84;;;5.45;91.32
74960;BME280;63518;49.572;1.106;2023-04-15T06:27:02;99103.94;;;5.61;90.62
74960;BME280;63518;49.572;1.106;2023-04-15T06:29:29;99124.47;;;5.74;90.16
74960;BME280;63518;49.572;1.106;2023-04-15T06:31:56;99118.38;;;5.57;90.80
74960;BME280;63518;49.572;1.106;2023-04-15T06:34:23;99136.78;;;5.71;90.72
74960;BME280;63518;49.572;1.106;2023-04-15T06:36:49;99132.63;;;5.64;90.84
74960;BME280;63518;49.572;1.106;2023-04-15T06:39:16;99147.75;;;5.82;89.91
74960;BME280;63518;49.572;1.106;2023-04-15T06:41:43;99157.06;;;5.81;90.15
74960;BME280;63518;49.572;1.106;2023-04-15T06:44:10;99154.88;;;5.77;90.67
74960;BME280;63518;49.572;1.106;2023-04-15T06:46:36;99156.41;;;5.63;90.27
74960;BME280;63518;49.572;1.106;2023-04-15T06:49:03;99163.56;;;5.74;89.47
74960;BME280;63518;49.572;1.106;2023-04-15T06:51:30;99159.56;;;5.92;89.48
74960;BME280;63518;49.572;1.106;2023-04-15T06:53:58;99141.66;;;5.64;89.20
74960;BME280;63518;49.572;1.106;2023-04-15T06:56:24;99177.00;;;5.81;89.36
74960;BME280;63518;49.572;1.106;2023-04-15T06:58:51;99177.88;;;5.92;89.72
74960;BME280;63518;49.572;1.106;2023-04-15T07:01:18;99174.88;;;5.88;88.88
74960;BME280;63518;49.572;1.106;2023-04-15T07:03:45;99176.25;;;5.91;90.22
74960;BME280;63518;49.572;1.106;2023-04-15T07:06:12;99173.00;;;5.94;89.98
74960;BME280;63518;49.572;1.106;2023-04-15T07:08:39;99186.91;;;5.92;89.52
74960;BME280;63518;49.572;1.106;2023-04-15T07:11:06;99187.50;;;5.94;90.02
74960;BME280;63518;49.572;1.106;2023-04-15T07:13:33;99199.03;;;6.06;89.58
74960;BME280;63518;49.572;1.106;2023-04-15T07:15:59;99197.56;;;5.89;89.64
74960;BME280;63518;49.572;1.106;2023-04-15T07:18:26;99203.94;;;6.04;89.16
74960;BME280;63518;49.572;1.106;2023-04-15T07:20:53;99202.41;;;5.71;89.51
74960;BME280;63518;49.572;1.106;2023-04-15T07:23:20;99216.16;;;5.87;90.44
74960;BME280;63518;49.572;1.106;2023-04-15T07:25:47;99221.41;;;5.98;90.48
74960;BME280;63518;49.572;1.106;2023-04-15T07:28:14;99223.09;;;6.04;89.99
74960;BME280;63518;49.572;1.106;2023-04-15T07:30:41;99229.50;;;6.25;89.48
74960;BME280;63518;49.572;1.106;2023-04-15T07:33:08;99229.97;;;6.12;89.99
74960;BME280;63518;49.572;1.106;2023-04-15T07:35:34;99238.69;;;6.04;90.02
74960;BME280;63518;49.572;1.106;2023-04-15T07:38:01;99239.03;;;6.23;90.05
74960;BME280;63518;49.572;1.106;2023-04-15T07:40:28;99231.25;;;5.94;89.89
74960;BME280;63518;49.572;1.106;2023-04-15T07:42:55;99253.84;;;6.27;89.74
74960;BME280;63518;49.572;1.106;2023-04-15T07:45:23;99244.75;;;6.11;89.17
74960;BME280;63518;49.572;1.106;2023-04-15T07:47:50;99263.47;;;6.34;89.67
74960;BME280;63518;49.572;1.106;2023-04-15T07:50:17;99242.09;;;6.26;89.07
74960;BME280;63518;49.572;1.106;2023-04-15T07:52:45;99265.75;;;6.63;90.26
74960;BME280;63518;49.572;1.106;2023-04-15T07:55:11;99272.78;;;6.33;89.79
74960;BME280;63518;49.572;1.106;2023-04-15T07:57:38;99266.72;;;6.31;90.07
74960;BME280;63518;49.572;1.106;2023-04-15T08:00:06;99256.06;;;6.35;89.65
74960;BME280;63518;49.572;1.106;2023-04-15T08:02:33;99283.44;;;6.35;89.86
74960;BME280;63518;49.572;1.106;2023-04-15T08:05:03;99277.03;;;6.09;89.93
74960;BME280;63518;49.572;1.106;2023-04-15T08:07:29;99294.66;;;6.39;90.38
74960;BME280;63518;49.572;1.106;2023-04-15T08:09:57;99301.69;;;6.19;90.70
74960;BME280;63518;49.572;1.106;2023-04-15T08:12:23;99309.44;;;6.32;90.89
74960;BME280;63518;49.572;1.106;2023-04-15T08:14:50;99290.34;;;6.48;90.15
74960;BME280;63518;49.572;1.106;2023-04-15T08:17:18;99295.09;;;6.10;90.84
74960;BME280;63518;49.572;1.106;2023-04-15T08:19:46;99300.16;;;6.39;90.90
74960;BME280;63518;49.572;1.106;2023-04-15T08:22:14;99312.25;;;6.53;90.54
74960;BME280;63518;49.572;1.106;2023-04-15T08:24:45;99313.44;;;6.15;90.32
74960;BME280;63518;49.572;1.106;2023-04-15T08:27:12;99313.56;;;6.35;90.24
74960;BME280;63518;49.572;1.106;2023-04-15T08:29:39;99321.63;;;6.57;89.45
74960;BME280;63518;49.572;1.106;2023-04-15T08:32:06;99332.53;;;7.14;89.71
74960;BME280;63518;49.572;1.106;2023-04-15T08:34:33;99325.91;;;7.10;88.66
74960;BME280;63518;49.572;1.106;2023-04-15T08:37:00;99326.97;;;6.94;88.88
74960;BME280;63518;49.572;1.106;2023-04-15T08:39:27;99332.53;;;7.14;88.23
74960;BME280;63518;49.572;1.106;2023-04-15T08:42:02;99348.88;;;6.89;89.24
74960;BME280;63518;49.572;1.106;2023-04-15T08:44:34;99339.41;;;7.22;89.55
74960;BME280;63518;49.572;1.106;2023-04-15T08:47:03;99351.47;;;7.21;88.88
74960;BME280;63518;49.572;1.106;2023-04-15T08:49:34;99369.59;;;7.37;88.91
74960;BME280;63518;49.572;1.106;2023-04-15T08:52:05;99351.19;;;7.23;88.85
74960;BME280;63518;49.572;1.106;2023-04-15T08:54:32;99375.66;;;7.55;88.70
74960;BME280;63518;49.572;1.106;2023-04-15T08:57:00;99380.56;;;7.37;87.86
74960;BME280;63518;49.572;1.106;2023-04-15T08:59:29;99381.31;;;7.12;88.78
74960;BME280;63518;49.572;1.106;2023-04-15T09:01:56;99392.28;;;7.12;89.53
74960;BME280;63518;49.572;1.106;2023-04-15T09:04:23;99390.69;;;7.42;88.75
74960;BME280;63518;49.572;1.106;2023-04-15T09:06:50;99397.06;;;7.73;88.11
74960;BME280;63518;49.572;1.106;2023-04-15T09:09:17;99384.13;;;7.58;87.87
74960;BME280;63518;49.572;1.106;2023-04-15T09:11:44;99405.22;;;7.37;87.69
74960;BME280;63518;49.572;1.106;2023-04-15T09:14:11;99411.25;;;7.39;88.40
74960;BME280;63518;49.572;1.106;2023-04-15T09:17:00;99414.06;;;7.60;88.47
74960;BME280;63518;49.572;1.106;2023-04-15T09:19:28;99423.72;;;7.83;88.88
74960;BME280;63518;49.572;1.106;2023-04-15T09:21:57;99417.09;;;8.50;87.63
74960;BME280;63518;49.572;1.106;2023-04-15T09:24:34;99425.09;;;8.26;86.27
74960;BME280;63518;49.572;1.106;2023-04-15T09:27:03;99437.66;;;7.61;87.72
74960;BME280;63518;49.572;1.106;2023-04-15T09:29:30;99435.13;;;7.49;87.49
74960;BME280;63518;49.572;1.106;2023-04-15T09:32:08;99427.22;;;7.63;86.96
74960;BME280;63518;49.572;1.106;2023-04-15T09:34:35;99454.09;;;7.51;87.49
74960;BME280;63518;49.572;1.106;2023-04-15T09:37:03;99454.41;;;7.75;86.48
74960;BME280;63518;49.572;1.106;2023-04-15T09:39:46;99439.31;;;7.77;86.23
74960;BME280;63518;49.572;1.106;2023-04-15T09:42:14;99464.31;;;7.86;86.94
74960;BME280;63518;49.572;1.106;2023-04-15T09:44:42;99476.03;;;7.66;86.69
74960;BME280;63518;49.572;1.106;2023-04-15T09:47:26;99477.59;;;7.41;88.54
74960;BME280;63518;49.572;1.106;2023-04-15T09:49:57;99503.38;;;7.40;88.43
74960;BME280;63518;49.572;1.106;2023-04-15T09:52:24;99491.78;;;8.06;88.24
74960;BME280;63518;49.572;1.106;2023-04-15T09:54:57;99518.63;;;7.89;87.18
74960;BME280;63518;49.572;1.106;2023-04-15T09:57:24;99512.00;;;7.69;87.22
74960;BME280;63518;49.572;1.106;2023-04-15T09:59:51;99520.03;;;8.01;87.15
74960;BME280;63518;49.572;1.106;2023-04-15T10:02:18;99533.09;;;7.59;87.13
74960;BME280;63518;49.572;1.106;2023-04-15T10:04:49;99537.09;;;8.14;87.01
74960;BME280;63518;49.572;1.106;2023-04-15T10:07:16;99528.63;;;8.31;84.27
74960;BME280;63518;49.572;1.106;2023-04-15T10:09:47;99530.78;;;8.28;85.01
74960;BME280;63518;49.572;1.106;2023-04-15T10:12:18;99525.19;;;7.78;84.27
74960;BME280;63518;49.572;1.106;2023-04-15T10:14:52;99535.50;;;7.45;85.01
74960;BME280;63518;49.572;1.106;2023-04-15T10:17:22;99544.44;;;7.25;85.90
74960;BME280;63518;49.572;1.106;2023-04-15T10:19:53;99552.31;;;7.74;85.12
74960;BME280;63518;49.572;1.106;2023-04-15T10:22:22;99548.50;;;7.75;84.27
74960;BME280;63518;49.572;1.106;2023-04-15T10:24:49;99562.53;;;7.26;85.89
74960;BME280;63518;49.572;1.106;2023-04-15T10:27:16;99559.50;;;7.23;86.31
74960;BME280;63518;49.572;1.106;2023-04-15T10:29:44;99562.22;;;7.75;85.99
74960;BME280;63518;49.572;1.106;2023-04-15T10:32:11;99576.00;;;7.33;85.78
74960;BME280;63518;49.572;1.106;2023-04-15T10:34:39;99579.19;;;7.62;86.07
74960;BME280;63518;49.572;1.106;2023-04-15T10:37:08;99578.97;;;7.26;85.81
74960;BME280;63518;49.572;1.106;2023-04-15T10:42:06;99585.72;;;7.56;84.46
74960;BME280;63518;49.572;1.106;2023-04-15T10:44:34;99597.91;;;7.80;83.81
74960;BME280;63518;49.572;1.106;2023-04-15T10:47:05;99588.88;;;7.27;84.07
74960;BME280;63518;49.572;1.106;2023-04-15T10:49:32;99592.75;;;7.36;83.40
74960;BME280;63518;49.572;1.106;2023-04-15T10:52:00;99605.84;;;7.82;83.86
74960;BME280;63518;49.572;1.106;2023-04-15T10:59:37;99610.00;;;7.32;84.29
74960;BME280;63518;49.572;1.106;2023-04-15T11:02:06;99620.50;;;7.45;84.92
74960;BME280;63518;49.572;1.106;2023-04-15T11:10:02;99628.00;;;7.60;85.43
74960;BME280;63518;49.572;1.106;2023-04-15T11:12:35;99626.03;;;7.55;85.82
74960;BME280;63518;49.572;1.106;2023-04-15T11:15:28;99632.75;;;7.75;85.87
74960;BME280;63518;49.572;1.106;2023-04-15T11:17:56;99633.97;;;7.52;85.87
74960;BME280;63518;49.572;1.106;2023-04-15T11:20:24;99634.81;;;7.57;84.28
74960;BME280;63518;49.572;1.106;2023-04-15T11:22:54;99650.97;;;8.01;84.09
74960;BME280;63518;49.572;1.106;2023-04-15T11:25:40;99634.25;;;7.55;85.23
74960;BME280;63518;49.572;1.106;2023-04-15T11:28:07;99653.09;;;7.89;84.92
74960;BME280;63518;49.572;1.106;2023-04-15T11:30:35;99658.13;;;8.12;84.16
74960;BME280;63518;49.572;1.106;2023-04-15T11:33:07;99647.00;;;7.77;84.10
74960;BME280;63518;49.572;1.106;2023-04-15T11:35:35;99664.59;;;7.86;84.46
74960;BME280;63518;49.572;1.106;2023-04-15T11:38:08;99671.34;;;8.15;85.45
74960;BME280;63518;49.572;1.106;2023-04-15T11:40:36;99647.91;;;7.97;83.86
74960;BME280;63518;49.572;1.106;2023-04-15T11:45:30;99669.03;;;8.70;83.03
74960;BME280;63518;49.572;1.106;2023-04-15T11:48:11;99668.94;;;8.44;82.25
74960;BME280;63518;49.572;1.106;2023-04-15T11:50:39;99672.25;;;8.51;81.91
74960;BME280;63518;49.572;1.106;2023-04-15T11:53:09;99687.59;;;8.32;81.23
74960;BME280;63518;49.572;1.106;2023-04-15T11:55:44;99691.03;;;8.75;80.52
74960;BME280;63518;49.572;1.106;2023-04-15T11:58:14;99685.56;;;8.80;78.53
74960;BME280;63518;49.572;1.106;2023-04-15T12:00:49;99694.09;;;8.89;80.52
74960;BME280;63518;49.572;1.106;2023-04-15T12:03:19;99705.66;;;9.01;80.00
74960;BME280;63518;49.572;1.106;2023-04-15T12:11:15;99704.84;;;9.26;78.56
74960;BME280;63518;49.572;1.106;2023-04-15T12:13:46;99711.16;;;9.36;79.72
74960;BME280;63518;49.572;1.106;2023-04-15T12:16:16;99707.84;;;9.55;79.39
74960;BME280;63518;49.572;1.106;2023-04-15T12:18:44;99720.59;;;8.52;80.83
74960;BME280;63518;49.572;1.106;2023-04-15T12:21:10;99726.28;;;9.44;80.26
74960;BME280;63518;49.572;1.106;2023-04-15T12:23:37;99737.75;;;10.02;80.09
74960;BME280;63518;49.572;1.106;2023-04-15T12:26:04;99745.38;;;10.41;79.58
74960;BME280;63518;49.572;1.106;2023-04-15T12:28:35;99746.91;;;9.21;79.40
74960;BME280;63518;49.572;1.106;2023-04-15T12:31:11;99752.69;;;9.76;80.01
74960;BME280;63518;49.572;1.106;2023-04-15T12:33:38;99765.91;;;9.48;79.04
74960;BME280;63518;49.572;1.106;2023-04-15T12:36:05;99759.28;;;9.69;79.20
74960;BME280;63518;49.572;1.106;2023-04-15T12:38:32;99759.31;;;9.34;78.31
74960;BME280;63518;49.572;1.106;2023-04-15T12:40:59;99771.94;;;9.45;79.11
74960;BME280;63518;49.572;1.106;2023-04-15T12:43:25;99774.44;;;9.52;78.15
74960;BME280;63518;49.572;1.106;2023-04-15T12:45:52;99785.94;;;9.13;78.85
74960;BME280;63518;49.572;1.106;2023-04-15T12:48:19;99785.72;;;9.50;77.70
74960;BME280;63518;49.572;1.106;2023-04-15T12:50:46;99779.91;;;9.98;76.75
74960;BME280;63518;49.572;1.106;2023-04-15T12:53:13;99786.81;;;9.64;76.12
74960;BME280;63518;49.572;1.106;2023-04-15T12:55:39;99774.38;;;10.03;74.55
74960;BME280;63518;49.572;1.106;2023-04-15T12:58:06;99795.88;;;9.55;75.15
74960;BME280;63518;49.572;1.106;2023-04-15T13:00:33;99804.66;;;9.31;74.34
74960;BME280;63518;49.572;1.106;2023-04-15T13:03:00;99806.25;;;9.07;75.60
74960;BME280;63518;49.572;1.106;2023-04-15T13:05:27;99807.72;;;9.35;76.73
74960;BME280;63518;49.572;1.106;2023-04-15T13:07:54;99807.75;;;9.81;75.53
74960;BME280;63518;49.572;1.106;2023-04-15T13:10:20;99818.69;;;9.30;77.21
74960;BME280;63518;49.572;1.106;2023-04-15T13:12:48;99826.16;;;9.50;76.07
74960;BME280;63518;49.572;1.106;2023-04-15T13:15:15;99820.38;;;9.87;74.81
74960;BME280;63518;49.572;1.106;2023-04-15T13:17:44;99827.53;;;9.67;74.17
74960;BME280;63518;49.572;1.106;2023-04-15T13:20:11;99831.38;;;9.61;74.88
74960;BME280;63518;49.572;1.106;2023-04-15T13:22:38;99833.59;;;9.69;76.92
74960;BME280;63518;49.572;1.106;2023-04-15T13:25:04;99841.31;;;9.78;73.62
74960;BME280;63518;49.572;1.106;2023-04-15T13:27:31;99842.38;;;10.22;74.27
74960;BME280;63518;49.572;1.106;2023-04-15T13:29:58;99850.69;;;9.82;73.90
74960;BME280;63518;49.572;1.106;2023-04-15T13:32:25;99856.13;;;9.46;74.47
74960;BME280;63518;49.572;1.106;2023-04-15T13:34:52;99869.63;;;9.43;75.24